Time;durP1;ratioP1;P1;durP2;ratioP2;P2;SDS_P1;SDS_P2;PMS_P1;PMS_P2;Temp;Humidity;BMP_temperature;BMP_pressure;BME280_temperature;BME280_humidity;BME280_pressure;Samples;Min_cycle;Max_cycle;Signal;HPM_P1;HPM_P2
2023/05/28 00:01:07;;;;;;;8.13;5.43;;;16.70;99.90;;;;;;5103505;28;20266;-77
2023/05/28 00:03:35;;;;;;;11.95;6.10;;;16.60;99.90;;;;;;5111380;28;20181;-77
2023/05/28 00:06:03;;;;;;;8.57;5.63;;;16.50;99.90;;;;;;5112871;28;20207;-77
2023/05/28 00:08:30;;;;;;;8.73;5.70;;;16.50;99.90;;;;;;5113443;28;20200;-77
2023/05/28 00:11:00;;;;;;;8.30;5.35;;;16.50;99.90;;;;;;5106587;28;20213;-77
2023/05/28 00:13:28;;;;;;;9.27;5.70;;;16.50;99.90;;;;;;5101919;28;20199;-77
2023/05/28 00:15:56;;;;;;;8.38;5.93;;;16.50;99.90;;;;;;5101293;28;20205;-77
2023/05/28 00:18:24;;;;;;;8.65;6.00;;;16.40;99.90;;;;;;5103309;28;20201;-77
2023/05/28 00:20:51;;;;;;;8.45;5.18;;;16.20;99.90;;;;;;5095597;28;20212;-77
2023/05/28 00:23:18;;;;;;;9.80;5.88;;;16.10;99.90;;;;;;5113942;28;20196;-77
2023/05/28 00:25:46;;;;;;;7.80;5.70;;;16.00;99.90;;;;;;5107117;28;20211;-77
2023/05/28 00:28:15;;;;;;;6.80;5.03;;;16.00;99.90;;;;;;5113751;28;20192;-77
2023/05/28 00:30:42;;;;;;;13.05;6.22;;;15.90;99.90;;;;;;5093460;28;20706;-77
2023/05/28 00:33:09;;;;;;;10.23;6.28;;;15.70;99.90;;;;;;5114165;28;20223;-77
2023/05/28 00:35:37;;;;;;;7.70;5.35;;;15.70;99.90;;;;;;5106519;28;20223;-77
2023/05/28 00:38:04;;;;;;;9.23;5.70;;;15.60;99.90;;;;;;5105762;28;20666;-76
2023/05/28 00:40:32;;;;;;;8.13;5.78;;;15.50;99.90;;;;;;5100541;28;20225;-77
2023/05/28 00:43:00;;;;;;;7.63;5.55;;;15.50;99.90;;;;;;5111171;28;20203;-77
2023/05/28 00:45:29;;;;;;;8.77;5.25;;;15.60;99.90;;;;;;5106953;28;20659;-77
2023/05/28 00:47:56;;;;;;;7.75;5.50;;;15.60;99.90;;;;;;5112836;28;20196;-77
2023/05/28 00:50:25;;;;;;;7.55;5.20;;;15.60;99.90;;;;;;5107911;28;20225;-77
2023/05/28 00:52:52;;;;;;;9.05;6.40;;;15.50;99.90;;;;;;5098635;28;20217;-77
2023/05/28 00:55:21;;;;;;;7.68;5.95;;;15.60;99.90;;;;;;5103048;28;20192;-77
2023/05/28 00:57:53;;;;;;;9.88;5.85;;;15.60;99.90;;;;;;5114320;28;20189;-77
2023/05/28 01:00:21;;;;;;;9.60;6.03;;;15.50;99.90;;;;;;5105611;28;20220;-77
2023/05/28 01:02:49;;;;;;;9.10;6.00;;;15.60;99.90;;;;;;5105328;28;20195;-77
2023/05/28 01:05:17;;;;;;;8.88;6.20;;;15.70;99.90;;;;;;5110641;28;20207;-77
2023/05/28 01:07:45;;;;;;;10.07;5.95;;;15.80;99.90;;;;;;5112552;28;20192;-77
2023/05/28 01:10:13;;;;;;;9.73;5.75;;;15.90;99.90;;;;;;5105586;28;20219;-77
2023/05/28 01:12:42;;;;;;;8.30;6.10;;;15.90;99.90;;;;;;5111175;28;20239;-77
2023/05/28 01:15:11;;;;;;;9.13;5.70;;;15.80;99.90;;;;;;5094313;28;20211;-77
2023/05/28 01:17:39;;;;;;;6.57;5.90;;;15.60;99.90;;;;;;5106980;28;20200;-77
2023/05/28 01:20:13;;;;;;;8.43;5.55;;;15.50;99.90;;;;;;5106233;28;20220;-77
2023/05/28 01:22:47;;;;;;;9.10;6.18;;;15.40;99.90;;;;;;5112794;28;20196;-77
2023/05/28 01:25:17;;;;;;;10.32;5.82;;;15.40;99.90;;;;;;5100965;28;20203;-77
2023/05/28 01:27:44;;;;;;;8.57;5.93;;;15.40;99.90;;;;;;5106423;28;20197;-77
2023/05/28 01:30:12;;;;;;;7.90;5.53;;;15.30;99.90;;;;;;5105957;28;20227;-77
2023/05/28 01:32:40;;;;;;;6.80;5.30;;;15.00;99.90;;;;;;5104336;28;20216;-77
2023/05/28 01:35:09;;;;;;;8.95;6.30;;;15.00;99.90;;;;;;5103948;28;20200;-77
2023/05/28 01:37:40;;;;;;;7.10;5.78;;;15.00;99.90;;;;;;5104354;28;20196;-77
2023/05/28 01:40:09;;;;;;;9.18;5.53;;;15.00;99.90;;;;;;5111784;28;20216;-77
2023/05/28 01:42:38;;;;;;;8.18;5.78;;;14.80;99.90;;;;;;5106642;28;20208;-77
2023/05/28 01:45:08;;;;;;;7.65;5.75;;;14.80;99.90;;;;;;5102604;28;20558;-77
2023/05/28 01:47:39;;;;;;;6.03;5.15;;;14.70;99.90;;;;;;5110126;28;20203;-79
2023/05/28 01:50:08;;;;;;;7.65;5.90;;;14.70;99.90;;;;;;5106316;28;20207;-80
2023/05/28 01:52:35;;;;;;;6.78;5.93;;;14.70;99.90;;;;;;5113175;28;20208;-79
2023/05/28 01:55:04;;;;;;;10.35;5.95;;;14.60;99.90;;;;;;5112963;28;20193;-79
2023/05/28 01:57:33;;;;;;;12.65;6.20;;;14.60;99.90;;;;;;5099363;28;20590;-80
2023/05/28 02:00:03;;;;;;;8.70;5.80;;;14.60;99.90;;;;;;5103801;28;20715;-79
2023/05/28 02:02:42;;;;;;;8.50;5.82;;;14.60;99.90;;;;;;5112221;28;20192;-79
2023/05/28 02:05:11;;;;;;;11.85;6.03;;;14.50;99.90;;;;;;5116620;28;20196;-79
2023/05/28 02:07:38;;;;;;;9.77;6.20;;;14.50;99.90;;;;;;5122243;28;20199;-79
2023/05/28 02:10:07;;;;;;;12.80;6.22;;;14.40;99.90;;;;;;5107597;28;20233;-78
2023/05/28 02:12:34;;;;;;;10.05;6.10;;;14.30;99.90;;;;;;5106579;28;20681;-78
2023/05/28 02:15:03;;;;;;;7.72;6.22;;;14.20;99.90;;;;;;5108429;28;20197;-78
2023/05/28 02:17:31;;;;;;;8.65;5.97;;;14.30;99.90;;;;;;5116961;28;20199;-79
2023/05/28 02:19:58;;;;;;;8.65;5.60;;;14.30;99.90;;;;;;5117315;28;20239;-78
2023/05/28 02:22:28;;;;;;;9.82;5.80;;;14.40;99.90;;;;;;5118010;28;20206;-78
2023/05/28 02:24:55;;;;;;;10.27;6.60;;;14.20;99.90;;;;;;5117339;28;20204;-78
2023/05/28 02:27:23;;;;;;;7.43;6.00;;;14.20;99.90;;;;;;5111511;28;20200;-79
2023/05/28 02:29:51;;;;;;;10.40;6.07;;;14.20;99.90;;;;;;5117006;28;20216;-79
2023/05/28 02:32:21;;;;;;;10.77;6.40;;;14.40;99.90;;;;;;5110632;28;20220;-79
2023/05/28 02:34:50;;;;;;;9.13;6.38;;;14.60;99.90;;;;;;5115247;28;20184;-78
2023/05/28 02:37:17;;;;;;;10.82;6.32;;;14.60;99.90;;;;;;5118782;28;20210;-79
2023/05/28 02:39:45;;;;;;;7.30;5.40;;;14.40;99.90;;;;;;5117617;28;20686;-79
2023/05/28 02:42:13;;;;;;;7.43;5.65;;;14.30;99.90;;;;;;5105442;28;20195;-79
2023/05/28 02:44:40;;;;;;;10.25;6.97;;;14.30;99.90;;;;;;5111439;28;20223;-78
2023/05/28 02:47:09;;;;;;;8.95;6.45;;;14.40;99.90;;;;;;5115533;28;20197;-78
2023/05/28 02:49:39;;;;;;;8.98;6.43;;;14.30;99.90;;;;;;5111316;28;20221;-78
2023/05/28 02:52:06;;;;;;;8.50;6.10;;;14.10;99.90;;;;;;5108554;28;20680;-79
2023/05/28 02:54:44;;;;;;;9.38;6.15;;;14.10;99.90;;;;;;5109619;28;20204;-78
2023/05/28 02:57:12;;;;;;;6.97;5.93;;;14.20;99.90;;;;;;5114897;28;20208;-79
2023/05/28 02:59:40;;;;;;;8.77;5.82;;;14.30;99.90;;;;;;5111987;28;20227;-79
2023/05/28 03:02:08;;;;;;;12.13;6.82;;;14.30;99.90;;;;;;5111635;28;20196;-79
2023/05/28 03:04:35;;;;;;;6.93;5.35;;;14.20;99.90;;;;;;5107919;28;20189;-78
2023/05/28 03:07:04;;;;;;;8.88;6.30;;;14.20;99.90;;;;;;5116019;28;20211;-79
2023/05/28 03:09:34;;;;;;;8.38;5.88;;;14.20;99.90;;;;;;5112974;28;20235;-78
2023/05/28 03:12:01;;;;;;;9.88;6.18;;;14.20;99.90;;;;;;5108022;28;20189;-78
2023/05/28 03:14:29;;;;;;;10.07;6.20;;;14.20;99.90;;;;;;5108991;28;20231;-79
2023/05/28 03:16:56;;;;;;;9.52;6.38;;;14.10;99.90;;;;;;5110301;28;20209;-79
2023/05/28 03:19:26;;;;;;;8.07;6.55;;;14.30;99.90;;;;;;5111812;28;20224;-78
2023/05/28 03:21:53;;;;;;;10.27;6.30;;;14.30;99.90;;;;;;5105658;28;20196;-79
2023/05/28 03:24:24;;;;;;;9.52;6.40;;;14.40;99.90;;;;;;5104041;28;20267;-78
2023/05/28 03:26:54;;;;;;;8.75;6.22;;;14.60;99.90;;;;;;5099021;28;20252;-78
2023/05/28 03:29:24;;;;;;;10.82;7.13;;;14.60;99.90;;;;;;5100869;28;20209;-79
2023/05/28 03:32:07;;;;;;;10.98;6.82;;;14.50;99.90;;;;;;5111214;28;20223;-79
2023/05/28 03:34:35;;;;;;;11.65;7.20;;;14.20;99.90;;;;;;5108507;28;20224;-79
2023/05/28 03:37:03;;;;;;;9.10;6.53;;;13.60;99.90;;;;;;5120911;28;20211;-78
2023/05/28 03:39:33;;;;;;;11.98;7.32;;;13.60;99.90;;;;;;5118969;28;20231;-79
2023/05/28 03:42:01;;;;;;;10.05;6.50;;;13.30;99.90;;;;;;5115542;28;20201;-78
2023/05/28 03:44:31;;;;;;;9.85;6.90;;;13.10;99.90;;;;;;5116493;28;20189;-78
2023/05/28 03:46:58;;;;;;;8.73;6.80;;;13.10;99.90;;;;;;5107689;28;20205;-79
2023/05/28 03:49:25;;;;;;;12.10;7.07;;;13.40;99.90;;;;;;5121195;28;20220;-79
2023/05/28 03:51:54;;;;;;;9.50;6.55;;;13.40;99.90;;;;;;5104175;28;20198;-79
2023/05/28 03:54:22;;;;;;;10.98;7.72;;;13.50;99.90;;;;;;5110849;28;20220;-79
2023/05/28 03:56:51;;;;;;;11.60;7.10;;;13.30;99.90;;;;;;5111136;28;20196;-79
2023/05/28 03:59:18;;;;;;;8.77;7.53;;;13.40;99.90;;;;;;5119043;28;20224;-78
2023/05/28 04:01:46;;;;;;;9.30;6.53;;;13.40;99.90;;;;;;5107498;28;20195;-80
2023/05/28 04:04:15;;;;;;;9.55;7.00;;;13.40;99.90;;;;;;5119394;28;20193;-80
2023/05/28 04:06:42;;;;;;;13.00;7.53;;;13.20;99.90;;;;;;5111420;28;20197;-80
2023/05/28 04:09:10;;;;;;;10.65;6.85;;;13.10;99.90;;;;;;5109557;28;20223;-80
2023/05/28 04:11:38;;;;;;;10.93;7.50;;;13.30;99.90;;;;;;5112507;28;20200;-81
2023/05/28 04:14:14;;;;;;;9.18;6.50;;;13.10;99.90;;;;;;5110093;28;20208;-81
2023/05/28 04:16:41;;;;;;;9.48;6.60;;;13.30;99.90;;;;;;5112710;28;20666;-81
2023/05/28 04:19:09;;;;;;;7.80;6.22;;;13.30;99.90;;;;;;5105242;28;20212;-81
2023/05/28 04:21:36;;;;;;;11.93;7.15;;;13.30;99.90;;;;;;5113523;28;20219;-81
2023/05/28 04:24:04;;;;;;;11.70;6.82;;;13.30;99.90;;;;;;5120338;28;20189;-81
2023/05/28 04:26:33;;;;;;;10.40;7.05;;;13.40;99.90;;;;;;5111222;28;20201;-81
2023/05/28 04:29:01;;;;;;;10.10;6.85;;;13.40;99.90;;;;;;5110488;28;20205;-81
2023/05/28 04:31:31;;;;;;;11.95;7.63;;;13.30;99.90;;;;;;5114216;28;20211;-81
2023/05/28 04:33:58;;;;;;;9.25;6.97;;;13.00;99.90;;;;;;5114847;28;20205;-81
2023/05/28 04:36:29;;;;;;;9.32;6.35;;;12.90;99.90;;;;;;5113255;28;20201;-81
2023/05/28 04:39:00;;;;;;;10.02;6.90;;;13.10;99.90;;;;;;5105118;28;20201;-81
2023/05/28 04:41:30;;;;;;;9.35;7.05;;;13.30;99.90;;;;;;5110112;28;20204;-81
2023/05/28 04:44:02;;;;;;;11.68;7.65;;;13.10;99.90;;;;;;5112762;28;20196;-81
2023/05/28 04:46:33;;;;;;;11.93;7.57;;;13.10;99.90;;;;;;5105343;28;20201;-81
2023/05/28 04:49:01;;;;;;;9.10;7.30;;;13.20;99.90;;;;;;5112198;28;20196;-81
2023/05/28 04:51:28;;;;;;;10.18;7.30;;;13.70;99.90;;;;;;5119055;28;20193;-81
2023/05/28 04:53:56;;;;;;;9.43;7.50;;;13.80;99.90;;;;;;5114200;28;20209;-81
2023/05/28 04:56:24;;;;;;;8.77;6.57;;;14.00;99.90;;;;;;5118711;28;20953;-81
2023/05/28 04:58:52;;;;;;;9.05;6.78;;;13.80;99.90;;;;;;5119221;28;20201;-81
2023/05/28 05:01:19;;;;;;;9.55;7.15;;;13.90;99.90;;;;;;5111696;28;20197;-81
2023/05/28 05:03:49;;;;;;;9.85;6.70;;;14.20;99.90;;;;;;5112679;28;20197;-81
2023/05/28 05:06:17;;;;;;;11.20;6.95;;;14.00;99.90;;;;;;5108298;28;20193;-81
2023/05/28 05:08:44;;;;;;;9.68;7.07;;;13.90;99.90;;;;;;5113984;28;20193;-81
2023/05/28 05:11:12;;;;;;;8.80;7.00;;;13.90;99.90;;;;;;5117864;28;20217;-81
2023/05/28 05:13:39;;;;;;;10.70;7.25;;;14.00;99.90;;;;;;5114885;28;20212;-81
2023/05/28 05:16:07;;;;;;;12.23;7.63;;;14.10;99.90;;;;;;5110895;28;20200;-81
2023/05/28 05:18:35;;;;;;;9.82;7.30;;;14.40;99.90;;;;;;5117482;28;20193;-81
2023/05/28 05:21:04;;;;;;;13.27;7.55;;;14.30;99.90;;;;;;5112579;28;20224;-81
2023/05/28 05:23:32;;;;;;;12.77;8.02;;;14.20;99.90;;;;;;5104580;27;20197;-80
2023/05/28 05:25:59;;;;;;;11.45;7.72;;;14.30;99.90;;;;;;5120030;28;20196;-80
2023/05/28 05:28:26;;;;;;;12.85;8.00;;;14.40;99.90;;;;;;5112981;28;20204;-80
2023/05/28 05:30:57;;;;;;;11.68;7.25;;;14.20;99.90;;;;;;5109188;28;20217;-80
2023/05/28 05:33:24;;;;;;;10.55;7.80;;;14.20;99.90;;;;;;5112148;28;20204;-79
2023/05/28 05:36:13;;;;;;;13.25;7.50;;;14.40;99.90;;;;;;5108890;28;20203;-80
2023/05/28 05:38:51;;;;;;;10.05;7.38;;;14.60;99.90;;;;;;5108753;28;20192;-80
2023/05/28 05:44:50;;;;;;;9.52;7.25;;;14.90;99.90;;;;;;5060564;28;20181;-79
2023/05/28 05:47:17;;;;;;;8.63;6.78;;;15.00;99.90;;;;;;5093635;28;20204;-79
2023/05/28 05:49:45;;;;;;;12.80;7.53;;;15.20;99.90;;;;;;5102284;28;20224;-80
2023/05/28 05:52:14;;;;;;;9.57;7.65;;;15.30;99.90;;;;;;5114579;28;20189;-80
2023/05/28 05:54:43;;;;;;;14.63;8.23;;;15.40;99.90;;;;;;5103288;28;20213;-80
2023/05/28 05:57:11;;;;;;;11.95;7.95;;;15.30;99.90;;;;;;5102637;28;20192;-80
2023/05/28 05:59:40;;;;;;;12.75;7.63;;;15.10;99.90;;;;;;5103903;28;20216;-79
2023/05/28 06:02:07;;;;;;;10.27;7.55;;;15.10;99.90;;;;;;5099230;28;20201;-79
2023/05/28 06:04:35;;;;;;;12.70;7.80;;;15.20;99.90;;;;;;5107734;28;20201;-80
2023/05/28 06:07:23;;;;;;;10.88;8.07;;;15.20;99.90;;;;;;5103540;28;20204;-80
2023/05/28 06:10:10;;;;;;;10.93;7.90;;;15.40;99.90;;;;;;5112354;28;20224;-80
2023/05/28 06:12:43;;;;;;;10.98;7.97;;;15.40;99.90;;;;;;5109144;28;20201;-79
2023/05/28 06:15:13;;;;;;;10.57;7.55;;;15.50;99.90;;;;;;5095571;28;20219;-80
2023/05/28 06:17:43;;;;;;;9.43;7.80;;;15.50;99.90;;;;;;5108034;28;20196;-79
2023/05/28 06:20:11;;;;;;;12.85;8.38;;;15.50;99.90;;;;;;5102835;28;20220;-79
2023/05/28 06:22:40;;;;;;;10.57;8.48;;;15.50;99.90;;;;;;5104448;28;20204;-79
2023/05/28 06:25:11;;;;;;;9.00;7.65;;;15.70;99.90;;;;;;5103630;28;20571;-80
2023/05/28 06:27:41;;;;;;;9.75;8.07;;;16.00;99.90;;;;;;5109017;28;20193;-80
2023/05/28 06:30:10;;;;;;;10.75;7.55;;;16.10;99.90;;;;;;5102799;28;20220;-80
2023/05/28 06:32:39;;;;;;;12.00;8.68;;;15.90;99.90;;;;;;5103860;28;20207;-81
2023/05/28 06:35:07;;;;;;;10.88;8.38;;;15.80;99.90;;;;;;5106304;28;20204;-81
2023/05/28 06:37:35;;;;;;;14.13;8.75;;;15.90;99.90;;;;;;5099689;28;20193;-85
2023/05/28 06:40:06;;;;;;;10.50;7.50;;;16.50;99.90;;;;;;5100401;28;20242;-82
2023/05/28 06:42:34;;;;;;;12.52;7.75;;;17.10;99.90;;;;;;5105694;28;20556;-83
2023/05/28 06:45:13;;;;;;;11.40;7.97;;;17.10;99.90;;;;;;5103140;28;20188;-83
2023/05/28 06:47:41;;;;;;;12.48;7.32;;;16.90;99.90;;;;;;5110282;28;20196;-83
2023/05/28 06:50:10;;;;;;;11.93;7.63;;;16.90;99.90;;;;;;5104384;28;20225;-83
2023/05/28 06:52:41;;;;;;;11.93;6.90;;;17.20;99.90;;;;;;5110638;28;20564;-84
2023/05/28 06:55:10;;;;;;;9.73;7.65;;;17.40;99.90;;;;;;5095786;28;20224;-84
2023/05/28 06:57:45;;;;;;;10.18;6.93;;;17.40;99.90;;;;;;5096837;28;20196;-83
2023/05/28 07:00:45;;;;;;;10.18;7.13;;;17.50;99.90;;;;;;5070445;28;20231;-84
2023/05/28 07:03:26;;;;;;;11.45;7.78;;;17.60;99.90;;;;;;5096923;28;20201;-84
2023/05/28 07:06:03;;;;;;;9.32;6.57;;;17.20;99.90;;;;;;5096636;28;20185;-83
2023/05/28 07:08:31;;;;;;;8.50;5.65;;;17.50;99.90;;;;;;5113297;28;20204;-84
2023/05/28 07:11:00;;;;;;;8.80;5.60;;;17.60;99.90;;;;;;5118259;28;20227;-83
2023/05/28 07:13:28;;;;;;;8.40;5.50;;;17.60;99.90;;;;;;5120349;28;20192;-83
2023/05/28 07:15:55;;;;;;;6.90;5.28;;;17.80;99.90;;;;;;5120546;28;20215;-85
2023/05/28 07:18:23;;;;;;;7.63;5.13;;;17.90;99.90;;;;;;5119556;28;20200;-84
2023/05/28 07:20:51;;;;;;;7.50;5.65;;;18.10;99.90;;;;;;5108246;28;20228;-84
2023/05/28 07:23:23;;;;;;;7.10;5.03;;;17.80;99.90;;;;;;5104723;28;20207;-83
2023/05/28 07:25:52;;;;;;;9.20;5.72;;;17.40;99.90;;;;;;5121095;27;20195;-84
2023/05/28 07:28:21;;;;;;;5.55;4.70;;;17.30;99.90;;;;;;5118282;28;20204;-83
2023/05/28 07:30:48;;;;;;;7.93;5.28;;;17.70;99.90;;;;;;5116974;28;20682;-81
2023/05/28 07:33:16;;;;;;;10.27;4.47;;;18.00;99.90;;;;;;5116909;28;20204;-82
2023/05/28 07:35:44;;;;;;;10.95;5.35;;;18.10;99.90;;;;;;5118001;28;20216;-81
2023/05/28 07:38:12;;;;;;;8.38;5.63;;;18.20;99.90;;;;;;5111633;28;20219;-81
2023/05/28 07:40:40;;;;;;;9.82;5.50;;;18.30;99.90;;;;;;5118115;28;20227;-81
2023/05/28 07:43:24;;;;;;;6.40;4.88;;;18.40;99.90;;;;;;5117333;28;20208;-82
2023/05/28 07:45:54;;;;;;;7.57;5.35;;;18.60;99.90;;;;;;5114794;28;20193;-81
2023/05/28 07:48:23;;;;;;;7.80;5.30;;;18.60;99.90;;;;;;5121781;28;20197;-82
2023/05/28 07:50:59;;;;;;;8.13;5.05;;;18.50;99.90;;;;;;5125464;28;20219;-82
2023/05/28 07:53:47;;;;;;;10.35;5.47;;;18.60;99.90;;;;;;5126724;28;20219;-82
2023/05/28 07:56:22;;;;;;;8.38;4.95;;;18.80;99.90;;;;;;5128639;27;20243;-82
2023/05/28 07:58:52;;;;;;;9.60;5.18;;;18.70;99.90;;;;;;5128692;28;20199;-82
2023/05/28 08:01:21;;;;;;;8.70;4.90;;;18.80;99.90;;;;;;5116305;27;20204;-80
2023/05/28 08:03:51;;;;;;;7.55;5.43;;;18.90;99.80;;;;;;5111153;28;20201;-78
2023/05/28 08:06:21;;;;;;;6.82;4.68;;;18.80;99.50;;;;;;5122136;27;20214;-79
2023/05/28 08:08:50;;;;;;;9.73;5.45;;;18.70;99.90;;;;;;5124120;28;20200;-78
2023/05/28 08:11:18;;;;;;;6.45;4.60;;;18.70;99.90;;;;;;5125461;28;20654;-78
2023/05/28 08:13:47;;;;;;;7.88;4.68;;;18.60;99.90;;;;;;5115535;28;20223;-78
2023/05/28 08:16:17;;;;;;;6.38;4.40;;;18.60;99.90;;;;;;5122752;28;20219;-78
2023/05/28 08:19:07;;;;;;;11.75;4.40;;;18.90;99.50;;;;;;5110946;28;20218;-78
2023/05/28 08:21:36;;;;;;;7.18;4.70;;;19.00;98.30;;;;;;5111883;28;20200;-78
2023/05/28 08:24:04;;;;;;;8.68;5.00;;;18.90;98.30;;;;;;5111664;28;20200;-78
2023/05/28 08:26:32;;;;;;;8.05;4.45;;;18.90;98.50;;;;;;5123078;27;20200;-78
2023/05/28 08:29:00;;;;;;;7.78;4.10;;;18.80;98.70;;;;;;5116055;28;20212;-79
2023/05/28 08:31:31;;;;;;;5.68;4.05;;;19.00;99.30;;;;;;5111877;27;20196;-79
2023/05/28 08:34:09;;;;;;;8.27;4.68;;;19.10;99.10;;;;;;5112584;28;20215;-81
2023/05/28 08:36:37;;;;;;;7.07;3.88;;;19.20;98.70;;;;;;5110171;28;20216;-79
2023/05/28 08:39:05;;;;;;;8.18;4.38;;;19.10;98.10;;;;;;5116600;28;20204;-78
2023/05/28 08:41:34;;;;;;;6.28;4.00;;;19.20;98.50;;;;;;5112148;28;20189;-79
2023/05/28 08:44:01;;;;;;;9.98;4.43;;;19.30;97.60;;;;;;5107964;28;20586;-79
2023/05/28 08:46:32;;;;;;;7.20;4.40;;;19.40;98.00;;;;;;5109851;28;20193;-78
2023/05/28 08:49:44;;;;;;;8.25;3.58;;;19.50;97.20;;;;;;5015566;28;20220;-79
2023/05/28 08:52:15;;;;;;;7.15;3.97;;;19.60;95.90;;;;;;5008454;28;20206;-79
2023/05/28 08:54:44;;;;;;;7.68;4.43;;;19.60;96.60;;;;;;5066237;28;20200;-79
2023/05/28 08:57:12;;;;;;;5.18;3.45;;;19.70;96.20;;;;;;5115575;28;20227;-81
2023/05/28 08:59:48;;;;;;;5.78;3.95;;;19.80;96.40;;;;;;5120102;28;20220;-80
2023/05/28 09:02:23;;;;;;;6.22;3.58;;;19.90;96.30;;;;;;5122292;28;20196;-81
2023/05/28 09:04:56;;;;;;;6.07;3.88;;;19.90;96.50;;;;;;5119043;28;20197;-81
2023/05/28 09:07:26;;;;;;;8.98;4.20;;;20.00;96.40;;;;;;5108073;28;20196;-82
2023/05/28 09:09:58;;;;;;;7.07;4.00;;;20.00;96.20;;;;;;5114069;28;20221;-81
2023/05/28 09:12:29;;;;;;;6.63;3.75;;;20.10;96.10;;;;;;5106222;28;20193;-81
2023/05/28 09:15:02;;;;;;;7.00;3.58;;;20.10;95.70;;;;;;5106306;28;20197;-82
2023/05/28 09:17:38;;;;;;;7.78;4.28;;;20.20;96.00;;;;;;5101573;28;20213;-82
2023/05/28 09:20:13;;;;;;;7.18;4.55;;;20.20;96.00;;;;;;5108934;28;20220;-83
2023/05/28 09:22:43;;;;;;;7.65;4.82;;;20.30;95.60;;;;;;5108311;28;20200;-81
2023/05/28 09:25:35;;;;;;;6.38;3.67;;;20.40;94.80;;;;;;5108740;28;20287;-81
2023/05/28 09:28:14;;;;;;;5.93;4.47;;;20.30;94.30;;;;;;5108198;28;20824;-83
2023/05/28 09:30:42;;;;;;;4.60;3.90;;;20.30;94.30;;;;;;5104991;28;20220;-80
2023/05/28 09:33:11;;;;;;;6.18;3.67;;;20.40;94.50;;;;;;5108593;28;20199;-80
2023/05/28 09:35:38;;;;;;;7.07;3.50;;;20.50;94.00;;;;;;5112947;28;20204;-80
2023/05/28 09:38:07;;;;;;;5.68;3.67;;;20.60;94.20;;;;;;5114548;28;20203;-81
2023/05/28 09:40:39;;;;;;;6.40;5.00;;;20.60;93.50;;;;;;5111358;28;20223;-81
2023/05/28 09:43:07;;;;;;;7.57;4.22;;;20.50;93.00;;;;;;5115193;28;20202;-80
2023/05/28 09:45:35;;;;;;;5.88;4.00;;;20.50;92.90;;;;;;5120900;28;20204;-81
2023/05/28 09:48:03;;;;;;;4.75;3.42;;;20.60;93.10;;;;;;5115674;27;20207;-80
2023/05/28 09:50:32;;;;;;;5.72;3.30;;;20.70;93.30;;;;;;5110557;28;20231;-81
2023/05/28 09:53:00;;;;;;;6.72;3.97;;;20.80;93.10;;;;;;5103982;28;20204;-81
2023/05/28 09:55:30;;;;;;;6.13;3.47;;;21.00;93.00;;;;;;5099858;28;20236;-81
2023/05/28 09:58:02;;;;;;;7.38;6.13;;;21.10;93.00;;;;;;5107318;28;20212;-81
2023/05/28 10:00:33;;;;;;;4.53;3.58;;;20.90;92.10;;;;;;5110965;28;20216;-81
2023/05/28 10:03:15;;;;;;;10.93;4.78;;;21.00;93.90;;;;;;5109390;28;20204;-81
2023/05/28 10:05:45;;;;;;;6.25;3.85;;;21.00;92.10;;;;;;5108705;28;20205;-81
2023/05/28 10:08:16;;;;;;;7.82;3.80;;;20.90;92.10;;;;;;5103233;28;20204;-83
2023/05/28 10:10:49;;;;;;;8.98;3.53;;;20.90;92.70;;;;;;5106882;28;20569;-84
2023/05/28 10:13:17;;;;;;;7.43;3.88;;;21.00;92.60;;;;;;5102601;27;20208;-84
2023/05/28 10:15:46;;;;;;;5.72;3.50;;;20.90;91.80;;;;;;5105808;28;20197;-84
2023/05/28 10:18:14;;;;;;;6.60;3.75;;;21.00;91.90;;;;;;5102663;28;20206;-84
2023/05/28 10:20:44;;;;;;;6.38;3.70;;;21.00;92.20;;;;;;5109518;28;20224;-84
2023/05/28 10:23:14;;;;;;;15.88;5.57;;;21.20;91.80;;;;;;5109562;28;20200;-84
2023/05/28 10:25:42;;;;;;;5.32;2.90;;;21.20;90.90;;;;;;5109633;28;20200;-84
2023/05/28 10:28:14;;;;;;;5.63;3.55;;;21.30;91.70;;;;;;5103724;28;20200;-84
2023/05/28 10:30:42;;;;;;;5.90;3.53;;;21.30;90.60;;;;;;5104727;28;20220;-83
2023/05/28 10:33:12;;;;;;;7.25;3.55;;;21.40;91.20;;;;;;5105613;28;20211;-83
2023/05/28 10:35:54;;;;;;;5.72;3.17;;;21.60;91.70;;;;;;5103209;28;20200;-81
2023/05/28 10:38:22;;;;;;;12.30;4.97;;;21.70;89.70;;;;;;5109788;28;20196;-82
2023/05/28 10:40:50;;;;;;;5.78;3.10;;;21.70;89.70;;;;;;5104578;28;20225;-82
2023/05/28 10:43:45;;;;;;;5.40;3.22;;;21.90;89.70;;;;;;5115596;28;20192;-82
2023/05/28 10:46:18;;;;;;;5.85;3.22;;;22.00;90.20;;;;;;5102881;28;20196;-82
2023/05/28 10:49:07;;;;;;;7.53;3.20;;;22.20;90.40;;;;;;5114136;28;20197;-82
2023/05/28 10:51:51;;;;;;;5.05;3.60;;;22.20;90.00;;;;;;5114714;28;20200;-82
2023/05/28 10:54:24;;;;;;;7.45;3.65;;;22.10;87.90;;;;;;5111358;28;20216;-82
2023/05/28 10:57:08;;;;;;;5.80;2.97;;;22.20;87.10;;;;;;5107070;28;20216;-82
2023/05/28 10:59:43;;;;;;;4.57;3.25;;;22.30;87.40;;;;;;5112122;28;20697;-82
2023/05/28 11:02:11;;;;;;;6.65;3.40;;;22.20;86.10;;;;;;5106819;28;20199;-82
2023/05/28 11:04:39;;;;;;;6.97;3.55;;;22.30;86.00;;;;;;5105500;28;20200;-82
2023/05/28 11:07:08;;;;;;;7.28;3.53;;;22.50;85.50;;;;;;5116063;28;20192;-82
2023/05/28 11:09:36;;;;;;;5.10;3.55;;;22.50;86.00;;;;;;5111717;28;20220;-81
2023/05/28 11:12:05;;;;;;;5.18;3.35;;;22.50;87.50;;;;;;5108207;28;20204;-82
2023/05/28 11:14:37;;;;;;;6.53;3.28;;;22.60;87.60;;;;;;5107564;28;20219;-82
2023/05/28 11:17:10;;;;;;;6.00;3.10;;;22.70;84.30;;;;;;5107066;28;20232;-82
2023/05/28 11:19:42;;;;;;;5.38;3.40;;;22.70;84.10;;;;;;5103270;28;20704;-81
2023/05/28 11:22:11;;;;;;;4.82;2.88;;;22.90;85.40;;;;;;5112620;28;20542;-82
2023/05/28 11:24:58;;;;;;;7.20;3.58;;;22.90;82.20;;;;;;5111919;28;20205;-82
2023/05/28 11:27:27;;;;;;;5.35;3.50;;;23.00;84.60;;;;;;5105096;28;20199;-82
2023/05/28 11:29:56;;;;;;;5.22;2.80;;;23.30;83.00;;;;;;5113701;28;20301;-82
2023/05/28 11:32:24;;;;;;;8.48;4.43;;;23.20;81.00;;;;;;5117316;28;20211;-82
2023/05/28 11:34:53;;;;;;;6.47;3.33;;;23.30;80.80;;;;;;5114052;28;20208;-82
2023/05/28 11:37:26;;;;;;;7.68;3.88;;;23.10;79.70;;;;;;5118489;28;20235;-82
2023/05/28 11:39:56;;;;;;;4.38;3.15;;;23.30;80.90;;;;;;5115020;28;20673;-82
2023/05/28 11:42:27;;;;;;;4.97;3.28;;;23.50;80.70;;;;;;5117791;28;20564;-82
2023/05/28 11:45:00;;;;;;;5.72;3.10;;;23.50;79.70;;;;;;5120023;28;20212;-82
2023/05/28 11:47:27;;;;;;;4.18;3.35;;;23.30;83.10;;;;;;5119287;28;20196;-82
2023/05/28 11:49:55;;;;;;;4.82;3.03;;;23.40;80.40;;;;;;5112495;28;20216;-82
2023/05/28 11:52:35;;;;;;;5.60;3.15;;;23.30;79.20;;;;;;5118659;28;20204;-82
2023/05/28 11:55:04;;;;;;;4.55;2.90;;;23.50;81.10;;;;;;5108045;28;20196;-82
2023/05/28 11:57:36;;;;;;;5.10;3.45;;;23.20;80.80;;;;;;5114425;28;20213;-82
2023/05/28 12:00:10;;;;;;;5.07;3.33;;;23.30;80.50;;;;;;5108605;28;20224;-80
2023/05/28 12:02:43;;;;;;;5.50;3.17;;;23.30;80.40;;;;;;5110411;28;20206;-84
2023/05/28 12:05:11;;;;;;;6.30;3.30;;;23.30;80.40;;;;;;5108988;28;20681;-83
2023/05/28 12:07:44;;;;;;;6.85;3.55;;;23.40;79.60;;;;;;5108914;28;20196;-83
2023/05/28 12:10:13;;;;;;;6.07;2.97;;;23.70;81.10;;;;;;5101085;28;20223;-85
2023/05/28 12:12:43;;;;;;;7.32;3.38;;;23.90;80.70;;;;;;5102341;28;20201;-84
2023/05/28 12:15:11;;;;;;;3.92;2.70;;;24.30;79.70;;;;;;5102423;28;20203;-82
2023/05/28 12:17:40;;;;;;;3.78;2.50;;;24.30;76.80;;;;;;5111091;28;20220;-80
2023/05/28 12:20:28;;;;;;;6.63;3.25;;;24.60;74.70;;;;;;5110273;28;20216;-80
2023/05/28 12:23:11;;;;;;;4.63;2.60;;;24.30;75.10;;;;;;5106842;28;20203;-80
2023/05/28 12:25:49;;;;;;;4.80;3.05;;;24.40;72.90;;;;;;5113437;28;20197;-80
2023/05/28 12:28:17;;;;;;;6.05;3.65;;;24.40;71.30;;;;;;5116658;27;20188;-81
2023/05/28 12:30:47;;;;;;;7.15;3.40;;;24.50;73.00;;;;;;5110878;28;20240;-81
2023/05/28 12:33:15;;;;;;;4.88;3.13;;;24.70;72.60;;;;;;5115287;28;20204;-80
2023/05/28 12:35:42;;;;;;;6.30;3.10;;;24.70;74.10;;;;;;5099156;28;20658;-80
2023/05/28 12:38:15;;;;;;;4.32;2.65;;;24.70;73.00;;;;;;5097320;28;20220;-80
2023/05/28 12:40:42;;;;;;;6.53;3.50;;;24.70;72.70;;;;;;5112764;28;20213;-80
2023/05/28 12:43:10;;;;;;;4.68;2.83;;;24.70;72.90;;;;;;5098862;28;20199;-81
2023/05/28 12:45:37;;;;;;;4.35;2.80;;;24.90;70.40;;;;;;5115269;28;20196;-80
2023/05/28 12:48:05;;;;;;;5.97;2.85;;;25.10;71.60;;;;;;5120528;28;20188;-81
2023/05/28 12:50:32;;;;;;;5.43;2.85;;;25.10;66.50;;;;;;5115078;27;20216;-81
2023/05/28 12:53:00;;;;;;;5.80;2.70;;;24.80;65.20;;;;;;5116616;28;20196;-81
2023/05/28 12:55:37;;;;;;;3.95;2.70;;;24.90;66.30;;;;;;5104154;28;20211;-81
2023/05/28 12:58:04;;;;;;;3.30;2.47;;;25.30;65.50;;;;;;5112558;28;20207;-81
2023/05/28 13:00:32;;;;;;;3.80;2.38;;;25.10;63.50;;;;;;5117316;28;20212;-81
2023/05/28 13:03:02;;;;;;;2.88;2.35;;;25.70;60.30;;;;;;5118965;28;20193;-81